Time;durP1;ratioP1;P1;durP2;ratioP2;P2;SDS_P1;SDS_P2;PMS_P1;PMS_P2;Temp;Humidity;BMP_temperature;BMP_pressure;BME280_temperature;BME280_humidity;BME280_pressure;Samples;Min_cycle;Max_cycle;Signal;HPM_P1;HPM_P2
2023/01/26 00:02:15;;;;;;;25.25;18.48;;;;;;;18.12;40.40;102443.50;5014951;28;20069;-73
2023/01/26 00:04:40;;;;;;;26.23;18.08;;;;;;;18.11;40.25;102447.06;5014390;28;20044;-72
2023/01/26 00:07:05;;;;;;;24.08;16.95;;;;;;;18.10;40.24;102441.84;5014885;28;20508;-74
2023/01/26 00:09:30;;;;;;;24.02;17.67;;;;;;;18.08;40.42;102439.31;5013788;28;20030;-77
2023/01/26 00:11:56;;;;;;;25.20;17.13;;;;;;;18.07;40.37;102434.13;5013657;28;20056;-76
2023/01/26 00:14:21;;;;;;;24.80;16.63;;;;;;;18.10;40.30;102439.22;5014449;28;20037;-75
2023/01/26 00:16:46;;;;;;;24.05;17.73;;;;;;;18.09;40.08;102437.53;5014657;28;20052;-73
2023/01/26 00:19:11;;;;;;;23.43;17.03;;;;;;;18.06;40.29;102427.16;5014231;28;20033;-73
2023/01/26 00:21:37;;;;;;;23.85;17.35;;;;;;;18.02;40.19;102421.19;5014637;28;20267;-77
2023/01/26 00:24:03;;;;;;;24.25;16.77;;;;;;;18.03;40.21;102422.03;5014660;28;20041;-73
2023/01/26 00:26:28;;;;;;;23.58;16.30;;;;;;;18.01;40.05;102418.63;5014549;28;20029;-75
2023/01/26 00:28:54;;;;;;;26.30;17.17;;;;;;;17.98;40.21;102416.19;5013459;28;20030;-75
2023/01/26 00:31:25;;;;;;;23.00;16.15;;;;;;;17.99;40.22;102424.00;5012592;28;20033;-73
2023/01/26 00:33:51;;;;;;;23.20;15.63;;;;;;;17.98;40.41;102422.31;5014149;28;20095;-73
2023/01/26 00:36:17;;;;;;;25.20;16.70;;;;;;;17.98;40.26;102411.75;5014783;28;20030;-73
2023/01/26 00:38:42;;;;;;;23.33;16.73;;;;;;;17.97;40.52;102406.56;5013081;28;20042;-73
2023/01/26 00:42:05;;;;;;;21.45;16.30;;;;;;;18.00;40.47;102412.50;5013929;28;20084;-74
2023/01/26 00:43:54;;;;;;;21.08;15.98;;;;;;;17.93;40.65;102401.47;5011697;28;20099;-73
2023/01/26 00:46:19;;;;;;;22.02;16.27;;;;;;;17.96;40.38;102403.09;5011869;28;20620;-73
2023/01/26 00:48:45;;;;;;;21.88;15.88;;;;;;;17.99;40.34;102408.19;5014518;28;20030;-74
2023/01/26 00:51:10;;;;;;;21.70;15.25;;;;;;;17.96;40.34;102397.81;5013511;28;20089;-73
2023/01/26 00:53:35;;;;;;;23.00;16.35;;;;;;;17.97;40.49;102399.50;5013004;28;20107;-72
2023/01/26 00:56:00;;;;;;;21.05;15.50;;;;;;;17.93;40.44;102390.06;5013331;28;20048;-78
2023/01/26 00:58:26;;;;;;;21.75;15.95;;;;;;;17.92;40.36;102383.06;5011475;28;20133;-73
2023/01/26 01:00:52;;;;;;;19.33;14.88;;;;;;;17.92;40.47;102375.16;5013556;28;20037;-75
2023/01/26 01:03:17;;;;;;;24.15;15.30;;;;;;;17.92;40.44;102377.81;5017113;28;20038;-74
2023/01/26 01:05:42;;;;;;;18.33;13.30;;;;;;;17.89;40.66;102377.97;5004766;28;20048;-74
2023/01/26 01:08:08;;;;;;;21.10;15.40;;;;;;;17.93;40.38;102380.34;5013016;28;20500;-74
2023/01/26 01:10:33;;;;;;;20.83;14.75;;;;;;;17.89;40.56;102378.81;5012036;28;20108;-74
2023/01/26 01:12:58;;;;;;;20.00;14.27;;;;;;;17.90;40.54;102372.59;5013519;28;20121;-73
2023/01/26 01:15:25;;;;;;;19.95;14.20;;;;;;;17.90;40.39;102372.59;5013336;28;20038;-74
2023/01/26 01:17:50;;;;;;;19.40;14.38;;;;;;;17.89;40.35;102368.25;5012805;28;20553;-76
2023/01/26 01:20:15;;;;;;;19.98;14.52;;;;;;;17.90;40.44;102377.88;5012179;28;20141;-74
2023/01/26 01:22:41;;;;;;;20.33;13.63;;;;;;;17.91;40.83;102381.38;5013658;28;20068;-73
2023/01/26 01:25:06;;;;;;;17.67;14.40;;;;;;;17.83;40.62;102378.28;5011857;28;20025;-79
2023/01/26 01:27:32;;;;;;;20.45;13.90;;;;;;;17.87;40.71;102385.09;5003930;28;20037;-74
2023/01/26 01:29:57;;;;;;;19.45;13.80;;;;;;;17.87;40.57;102372.75;5012847;28;20475;-74
2023/01/26 01:32:22;;;;;;;18.27;13.55;;;;;;;17.86;40.54;102370.19;5011403;28;20030;-76
2023/01/26 01:34:48;;;;;;;18.95;13.27;;;;;;;17.87;40.62;102374.53;5012450;28;20029;-72
2023/01/26 01:37:15;;;;;;;19.35;13.43;;;;;;;17.86;40.75;102372.84;5013285;28;20064;-76
2023/01/26 01:39:40;;;;;;;17.17;12.75;;;;;;;17.86;40.76;102368.41;5012749;28;20086;-79
2023/01/26 01:42:06;;;;;;;17.85;13.48;;;;;;;17.86;40.77;102378.09;5015857;28;20025;-75
2023/01/26 01:44:35;;;;;;;17.17;12.63;;;;;;;17.82;40.83;102376.59;5012258;28;20043;-78
2023/01/26 01:47:18;;;;;;;16.45;12.50;;;;;;;17.83;40.51;102373.00;5012244;28;20038;-72
2023/01/26 01:49:50;;;;;;;18.38;13.35;;;;;;;17.84;40.68;102378.19;5013331;28;20103;-76
2023/01/26 01:52:28;;;;;;;18.35;12.50;;;;;;;17.84;40.40;102375.56;5013093;28;20053;-73
2023/01/26 01:55:08;;;;;;;18.45;12.95;;;;;;;17.84;40.72;102380.00;5009718;28;20064;-78
2023/01/26 01:57:50;;;;;;;17.80;12.18;;;;;;;17.80;40.79;102379.31;5012287;28;20049;-78
2023/01/26 02:00:20;;;;;;;17.02;12.30;;;;;;;17.83;40.71;102388.81;5012370;28;20033;-76
2023/01/26 02:03:10;;;;;;;17.80;11.77;;;;;;;17.75;40.71;102370.78;5012643;28;20504;-73
2023/01/26 02:05:51;;;;;;;16.95;12.57;;;;;;;17.80;40.71;102373.16;5012831;28;20061;-75
2023/01/26 02:08:18;;;;;;;18.80;11.70;;;;;;;17.76;40.60;102362.78;5012683;28;20034;-74
2023/01/26 02:10:49;;;;;;;15.98;12.02;;;;;;;17.79;40.48;102369.69;5013450;28;20033;-74
2023/01/26 02:13:17;;;;;;;17.20;12.57;;;;;;;17.79;40.52;102376.75;5011808;28;20033;-74
2023/01/26 02:15:43;;;;;;;16.65;11.88;;;;;;;17.78;40.44;102370.63;5012076;28;20041;-73
2023/01/26 02:18:10;;;;;;;17.52;12.15;;;;;;;17.76;40.94;102361.94;5013139;28;20484;-77
2023/01/26 02:20:44;;;;;;;15.93;12.05;;;;;;;17.76;40.79;102351.41;5011866;28;20501;-77
2023/01/26 02:23:16;;;;;;;;;;;;;;;17.82;40.79;102355.50;5012899;28;20112;-81
2023/01/26 02:25:56;;;;;;;14.98;11.20;;;;;;;17.76;40.63;102346.13;5011834;28;19912;-72
2023/01/26 02:28:24;;;;;;;14.90;11.38;;;;;;;17.72;40.57;102345.47;5010855;28;20037;-78
2023/01/26 02:30:50;;;;;;;18.02;11.63;;;;;;;17.73;40.95;102344.50;5009571;28;20056;-72
2023/01/26 02:33:22;;;;;;;15.27;10.98;;;;;;;17.74;40.77;102350.66;5011830;28;20109;-72
2023/01/26 02:35:47;;;;;;;18.30;12.15;;;;;;;17.73;40.64;102346.31;5011181;28;20109;-73
2023/01/26 02:38:12;;;;;;;16.05;11.88;;;;;;;17.71;40.68;102349.03;5012004;28;20051;-73
2023/01/26 02:40:50;;;;;;;15.73;11.52;;;;;;;17.71;40.93;102346.38;5011381;28;20390;-73
2023/01/26 02:43:15;;;;;;;15.93;11.20;;;;;;;17.71;41.07;102348.19;5015495;28;20565;-75
2023/01/26 02:45:42;;;;;;;14.90;11.38;;;;;;;17.68;40.77;102350.97;5010332;28;20037;-73
2023/01/26 02:48:07;;;;;;;18.17;11.95;;;;;;;17.67;40.93;102336.09;5011548;28;20478;-73
2023/01/26 02:50:33;;;;;;;17.35;11.30;;;;;;;17.67;40.93;102346.63;5011579;28;20044;-73
2023/01/26 02:52:59;;;;;;;16.40;12.10;;;;;;;17.66;40.88;102337.06;5010978;28;20025;-72
2023/01/26 02:55:25;;;;;;;16.25;11.32;;;;;;;17.64;40.97;102334.50;5010344;28;20037;-76
2023/01/26 02:57:56;;;;;;;17.00;11.82;;;;;;;17.67;40.88;102338.72;5012846;28;20041;-77
2023/01/26 03:00:27;;;;;;;14.00;10.55;;;;;;;17.63;41.04;102331.94;5010478;28;20041;-79
2023/01/26 03:02:55;;;;;;;17.35;11.43;;;;;;;17.63;40.94;102331.94;5011467;28;20333;-76
2023/01/26 03:05:20;;;;;;;15.18;10.70;;;;;;;17.67;40.89;102333.47;5010951;28;20034;-73
2023/01/26 03:07:46;;;;;;;15.20;10.77;;;;;;;17.63;40.82;102324.88;5011850;28;20040;-73
2023/01/26 03:10:12;;;;;;;20.25;11.80;;;;;;;17.65;40.83;102343.25;5011471;28;20034;-79
2023/01/26 03:12:37;;;;;;;16.35;12.00;;;;;;;17.64;41.03;102331.84;5011875;28;20045;-73
2023/01/26 03:29:15;;;;;;;14.68;10.60;;;;;;;17.57;40.96;102322.56;5015645;28;20048;-78
2023/01/26 03:31:41;;;;;;;13.38;10.57;;;;;;;17.58;40.86;102324.28;5015803;28;20033;-72
2023/01/26 03:34:06;;;;;;;13.27;10.15;;;;;;;17.57;41.14;102325.22;5014889;28;20208;-78
2023/01/26 03:36:31;;;;;;;13.68;10.05;;;;;;;17.61;41.16;102329.41;5016277;28;20061;-73
2023/01/26 03:38:56;;;;;;;19.20;10.30;;;;;;;17.56;41.01;102321.75;5014935;28;20056;-77
2023/01/26 03:57:47;;;;;;;13.38;9.40;;;;;;;17.57;41.13;102323.41;5015409;28;20065;-72
2023/01/26 04:00:13;;;;;;;14.80;9.85;;;;;;;17.54;41.24;102306.94;5013912;28;20034;-71
2023/01/26 04:08:23;;;;;;;14.75;9.57;;;;;;;17.52;40.90;102306.16;5032361;28;20044;-76
2023/01/26 04:10:50;;;;;;;14.13;9.40;;;;;;;17.50;41.01;102306.25;5033097;28;20037;-72
2023/01/26 04:21:34;;;;;;;14.27;9.55;;;;;;;17.53;41.47;102318.41;5028700;28;20095;-78
2023/01/26 04:24:01;;;;;;;13.65;9.15;;;;;;;17.52;41.23;102316.72;5015144;28;20107;-79
2023/01/26 04:26:35;;;;;;;16.38;9.68;;;;;;;17.49;41.17;102307.19;5020821;28;20068;-73
2023/01/26 04:29:07;;;;;;;13.57;9.02;;;;;;;17.48;41.25;102315.19;5014041;28;20060;-73
2023/01/26 04:31:32;;;;;;;14.32;9.40;;;;;;;17.49;41.44;102309.81;5018905;28;20418;-78
2023/01/26 04:34:02;;;;;;;14.35;9.23;;;;;;;17.48;41.55;102305.50;5012490;28;20067;-81
2023/01/26 04:36:28;;;;;;;13.48;9.20;;;;;;;17.48;41.62;102307.25;5011586;28;20040;-74
2023/01/26 04:38:54;;;;;;;13.40;9.18;;;;;;;17.48;41.22;102308.13;5015558;28;20409;-73
2023/01/26 04:41:19;;;;;;;15.95;9.55;;;;;;;17.49;41.44;102303.69;5013880;28;20068;-73
2023/01/26 04:43:44;;;;;;;12.77;8.80;;;;;;;17.50;41.40;102308.03;5013749;28;20037;-75
2023/01/26 04:46:10;;;;;;;13.85;9.15;;;;;;;17.51;41.28;102307.09;5013346;28;20092;-72
2023/01/26 04:48:35;;;;;;;13.38;8.95;;;;;;;17.51;41.44;102312.38;5015244;28;20040;-79
2023/01/26 04:51:06;;;;;;;12.70;8.45;;;;;;;17.47;41.69;102298.53;5013072;28;20057;-77
2023/01/26 04:53:32;;;;;;;12.43;8.43;;;;;;;17.51;41.65;102307.94;5014099;28;20453;-75
2023/01/26 04:55:58;;;;;;;13.40;8.43;;;;;;;17.52;41.57;102309.66;5012952;28;20048;-77
2023/01/26 04:58:23;;;;;;;13.68;8.93;;;;;;;17.48;41.79;102309.91;5008673;28;20049;-72
2023/01/26 05:00:53;;;;;;;12.90;9.05;;;;;;;17.47;41.74;102309.06;5012627;28;20029;-75
2023/01/26 05:03:19;;;;;;;12.02;8.52;;;;;;;17.48;41.80;102305.50;5019734;28;20390;-77
2023/01/26 05:05:48;;;;;;;12.30;8.65;;;;;;;17.52;41.98;102306.16;5014003;28;20042;-77
2023/01/26 05:08:15;;;;;;;12.60;8.43;;;;;;;17.52;42.15;102308.81;5013358;28;20033;-72
2023/01/26 05:10:40;;;;;;;12.57;8.18;;;;;;;17.52;41.73;102317.56;5014370;28;20053;-73
2023/01/26 05:13:05;;;;;;;14.70;8.40;;;;;;;17.48;41.85;102302.88;5014357;28;20080;-76
2023/01/26 05:15:31;;;;;;;15.02;7.95;;;;;;;17.49;41.91;102306.34;5014900;28;20033;-74
2023/01/26 05:17:58;;;;;;;13.90;7.93;;;;;;;17.52;42.02;102303.53;5014097;28;20037;-76
2023/01/26 05:20:24;;;;;;;13.68;8.05;;;;;;;17.49;41.79;102306.34;5013938;28;20286;-78
2023/01/26 05:22:49;;;;;;;13.38;8.48;;;;;;;17.52;41.85;102307.00;5012281;28;20474;-73
2023/01/26 05:25:14;;;;;;;14.30;8.00;;;;;;;17.52;42.04;102314.91;5014091;28;20029;-78
2023/01/26 05:27:40;;;;;;;14.10;8.07;;;;;;;17.48;41.87;102299.34;5013582;28;20053;-74
2023/01/26 05:30:05;;;;;;;13.10;7.70;;;;;;;17.48;41.81;102308.13;5013301;28;20233;-73
2023/01/26 05:32:31;;;;;;;12.85;7.53;;;;;;;17.46;41.86;102304.72;5013155;28;20040;-75
2023/01/26 05:34:56;;;;;;;11.97;7.57;;;;;;;17.44;41.62;102309.22;5013474;28;20033;-72
2023/01/26 05:37:26;;;;;;;10.02;7.13;;;;;;;17.47;41.23;102308.22;5013337;28;20263;-73
2023/01/26 05:39:51;;;;;;;11.35;6.20;;;;;;;17.49;40.97;102306.34;5013044;28;20039;-71
2023/01/26 05:42:16;;;;;;;9.63;5.72;;;;;;;17.55;40.64;102319.19;5013838;28;20121;-75
2023/01/26 05:44:42;;;;;;;9.63;6.03;;;;;;;17.56;40.44;102310.31;5013092;28;20956;-74
2023/01/26 05:47:07;;;;;;;9.32;5.57;;;;;;;17.62;39.97;102320.53;5013149;28;20080;-75
2023/01/26 05:49:32;;;;;;;8.52;5.38;;;;;;;17.64;40.35;102315.16;5011161;28;20204;-73
2023/01/26 05:51:58;;;;;;;8.38;5.78;;;;;;;17.71;40.02;102320.00;5012750;28;20061;-73
2023/01/26 05:54:23;;;;;;;9.32;5.60;;;;;;;17.73;39.99;102318.13;5013131;28;20046;-75
2023/01/26 05:56:49;;;;;;;7.90;5.22;;;;;;;17.77;39.83;102316.19;5011866;28;20033;-73
2023/01/26 05:59:14;;;;;;;9.07;5.50;;;;;;;17.81;39.87;102314.22;5013188;28;20043;-77
2023/01/26 06:01:40;;;;;;;7.63;5.20;;;;;;;17.87;39.97;102316.53;5012411;28;20068;-73
2023/01/26 06:04:05;;;;;;;7.93;5.10;;;;;;;17.79;39.83;102306.41;5012414;28;20047;-76
2023/01/26 06:06:31;;;;;;;7.47;5.32;;;;;;;17.92;39.77;102323.25;5011336;28;20425;-77
2023/01/26 06:08:57;;;;;;;10.25;5.20;;;;;;;17.90;39.75;102317.22;5011473;28;20108;-76
2023/01/26 06:11:22;;;;;;;8.25;5.53;;;;;;;17.96;39.67;102321.31;5012259;28;20109;-78
2023/01/26 06:13:48;;;;;;;8.85;5.10;;;;;;;17.96;39.81;102321.31;5012163;28;20040;-76
2023/01/26 06:16:13;;;;;;;7.10;4.90;;;;;;;17.99;39.73;102322.91;5012490;28;20134;-73
2023/01/26 06:18:38;;;;;;;7.88;4.90;;;;;;;17.99;39.87;102325.53;5012016;28;20484;-73
2023/01/26 06:21:04;;;;;;;9.10;4.80;;;;;;;18.02;39.76;102326.22;5012041;28;20442;-73
2023/01/26 06:23:29;;;;;;;7.38;4.85;;;;;;;18.00;39.53;102336.00;5011519;28;20454;-73
2023/01/26 06:26:05;;;;;;;9.30;5.03;;;;;;;18.08;39.83;102335.56;5010785;28;20561;-72
2023/01/26 06:28:30;;;;;;;7.22;4.50;;;;;;;18.08;39.80;102325.84;5010860;28;20117;-72
2023/01/26 06:31:00;;;;;;;7.63;4.32;;;;;;;18.09;39.68;102329.38;5011722;28;20112;-73
2023/01/26 06:33:25;;;;;;;6.57;4.68;;;;;;;18.11;39.80;102338.03;5010943;28;20029;-77
2023/01/26 06:35:51;;;;;;;9.40;5.15;;;;;;;18.11;39.58;102333.59;5010900;28;20068;-73
2023/01/26 06:38:16;;;;;;;8.20;4.80;;;;;;;18.10;39.59;102339.84;5012311;28;20465;-74
2023/01/26 06:40:41;;;;;;;8.13;4.63;;;;;;;18.10;39.71;102333.69;5012203;28;20083;-72
2023/01/26 06:43:07;;;;;;;7.47;4.03;;;;;;;18.10;40.12;102336.31;5008635;28;20055;-72
2023/01/26 06:45:32;;;;;;;7.57;4.88;;;;;;;18.12;39.66;102339.75;5010697;28;20298;-74
2023/01/26 06:47:57;;;;;;;9.02;4.88;;;;;;;18.08;39.34;102331.13;5011716;28;20474;-74
2023/01/26 06:50:29;;;;;;;7.40;4.23;;;;;;;18.12;39.92;102342.38;5012206;28;20152;-75
2023/01/26 06:52:57;;;;;;;8.82;4.75;;;;;;;18.09;39.89;102343.41;5012128;28;20298;-77
2023/01/26 06:55:31;;;;;;;9.45;4.60;;;;;;;18.11;40.06;102341.50;5011142;28;20034;-74
2023/01/26 06:57:56;;;;;;;7.20;4.15;;;;;;;18.09;40.02;102335.47;5011163;28;20037;-71
2023/01/26 07:00:22;;;;;;;10.75;5.20;;;;;;;18.09;40.06;102345.19;5010632;28;20030;-75
2023/01/26 07:02:47;;;;;;;9.90;4.78;;;;;;;18.11;40.12;102345.94;5010785;28;20033;-73
2023/01/26 07:05:12;;;;;;;9.07;4.67;;;;;;;18.09;40.17;102346.03;5011391;28;20136;-76
2023/01/26 07:07:37;;;;;;;8.77;5.07;;;;;;;18.09;40.44;102340.75;5011269;28;20331;-76
2023/01/26 07:10:05;;;;;;;11.93;5.03;;;;;;;18.08;40.46;102341.69;5012153;28;20406;-71
2023/01/26 07:12:42;;;;;;;6.93;4.53;;;;;;;18.09;40.64;102347.84;5011675;28;20036;-72
2023/01/26 07:15:08;;;;;;;9.40;4.85;;;;;;;18.07;40.55;102344.41;5010411;28;20025;-75
2023/01/26 07:17:34;;;;;;;7.03;4.75;;;;;;;18.09;40.66;102355.75;5011988;28;20061;-71
2023/01/26 07:19:59;;;;;;;7.90;4.47;;;;;;;18.07;40.67;102360.25;5011584;28;20088;-76
2023/01/26 07:22:24;;;;;;;10.00;4.78;;;;;;;18.10;40.98;102355.66;5011707;28;20041;-73
2023/01/26 07:24:50;;;;;;;9.45;4.53;;;;;;;18.09;40.79;102359.22;5009975;28;20034;-73
2023/01/26 07:27:15;;;;;;;8.48;4.60;;;;;;;18.09;40.93;102355.75;5010011;28;20033;-72
2023/01/26 07:29:40;;;;;;;10.48;6.28;;;;;;;18.09;41.04;102353.94;5010390;28;20099;-71
2023/01/26 07:32:05;;;;;;;9.13;4.57;;;;;;;18.05;41.13;102346.28;5009025;28;20037;-73
2023/01/26 07:34:31;;;;;;;9.77;4.45;;;;;;;18.10;41.30;102352.16;5001991;28;20321;-73
2023/01/26 07:36:56;;;;;;;10.10;4.03;;;;;;;18.12;41.57;102359.06;5008738;28;20030;-74
2023/01/26 07:39:21;;;;;;;8.18;4.45;;;;;;;18.12;41.37;102355.56;5009036;28;20124;-71
2023/01/26 07:41:48;;;;;;;7.30;4.13;;;;;;;18.16;41.62;102365.00;5007997;28;20079;-73
2023/01/26 07:44:13;;;;;;;9.70;4.60;;;;;;;18.13;41.48;102352.84;5006852;28;20498;-74
2023/01/26 07:46:40;;;;;;;6.32;3.63;;;;;;;18.17;41.75;102363.22;5008398;28;20025;-74
2023/01/26 07:49:05;;;;;;;7.72;4.47;;;;;;;18.17;42.08;102356.16;5006068;28;20049;-75
2023/01/26 07:51:31;;;;;;;7.88;4.47;;;;;;;18.21;41.58;102364.75;5006553;28;20042;-74
2023/01/26 07:53:57;;;;;;;7.63;4.38;;;;;;;18.17;41.85;102360.59;5008832;28;20427;-73
2023/01/26 07:56:23;;;;;;;6.90;3.78;;;;;;;18.21;41.68;102367.38;5007931;28;20037;-68
2023/01/26 07:58:52;;;;;;;8.73;4.57;;;;;;;18.20;41.88;102370.94;5009223;28;20497;-70
2023/01/26 08:01:18;;;;;;;7.22;3.92;;;;;;;18.21;41.80;102373.50;5008790;28;20657;-71
2023/01/26 08:03:47;;;;;;;8.43;3.88;;;;;;;18.23;41.59;102371.63;5010808;28;20512;-73
2023/01/26 08:06:12;;;;;;;11.20;3.92;;;;;;;18.28;41.25;102382.78;5008263;28;20088;-75
2023/01/26 08:08:41;;;;;;;8.38;4.22;;;;;;;18.32;41.73;102386.06;5009069;28;20041;-75
2023/01/26 08:11:08;;;;;;;10.77;5.18;;;;;;;18.28;41.68;102371.38;5012215;28;20030;-73
2023/01/26 08:13:34;;;;;;;8.13;4.20;;;;;;;18.33;41.94;102379.88;5014275;28;20106;-74
2023/01/26 08:16:01;;;;;;;10.05;4.72;;;;;;;18.33;42.01;102381.66;5014222;28;20470;-74
2023/01/26 08:18:27;;;;;;;9.57;4.47;;;;;;;18.32;42.31;102383.44;5013520;28;20053;-74
2023/01/26 08:20:53;;;;;;;8.48;4.25;;;;;;;18.32;42.15;102386.06;5013601;28;20065;-74
2023/01/26 08:23:18;;;;;;;12.30;4.50;;;;;;;18.40;42.04;102389.13;5014311;28;20049;-71
2023/01/26 08:25:44;;;;;;;10.30;4.22;;;;;;;18.44;42.12;102393.28;5014239;28;20037;-73
2023/01/26 08:28:09;;;;;;;8.70;4.80;;;;;;;18.43;42.13;102394.22;5013313;28;20087;-74
2023/01/26 08:30:35;;;;;;;13.68;4.43;;;;;;;18.45;42.24;102387.09;5014383;28;20034;-73
2023/01/26 08:33:01;;;;;;;10.98;4.63;;;;;;;18.46;42.08;102391.41;5013934;28;20045;-72
2023/01/26 08:35:27;;;;;;;10.13;4.80;;;;;;;18.44;41.98;102392.44;5010669;28;20072;-70
2023/01/26 08:37:52;;;;;;;11.32;4.90;;;;;;;18.45;42.08;102402.91;5008681;28;20065;-72
2023/01/26 08:40:17;;;;;;;7.75;4.03;;;;;;;18.41;42.30;102392.63;5011491;28;20064;-74
2023/01/26 08:42:43;;;;;;;10.38;4.72;;;;;;;18.44;42.09;102398.56;5010087;28;20088;-73
2023/01/26 08:45:08;;;;;;;7.53;4.38;;;;;;;18.48;42.27;102396.59;5011096;28;20099;-70
2023/01/26 08:47:34;;;;;;;13.32;4.60;;;;;;;18.40;42.51;102383.84;5009746;28;20041;-70
2023/01/26 08:49:59;;;;;;;11.95;4.95;;;;;;;18.48;42.50;102400.09;5010719;28;20029;-74
2023/01/26 08:52:24;;;;;;;10.77;4.20;;;;;;;18.48;42.50;102404.50;5009621;28;20498;-72
2023/01/26 08:54:49;;;;;;;16.08;4.45;;;;;;;18.48;42.63;102402.75;5009578;28;20092;-72
2023/01/26 08:57:15;;;;;;;10.32;4.10;;;;;;;18.44;42.77;102395.09;5012308;28;20040;-71
2023/01/26 08:59:41;;;;;;;10.23;4.47;;;;;;;18.48;42.41;102405.38;5011873;28;20034;-70
2023/01/26 09:02:08;;;;;;;9.30;4.47;;;;;;;18.48;42.76;102402.75;5014452;28;20045;-69
2023/01/26 09:04:34;;;;;;;8.88;4.05;;;;;;;18.54;42.60;102406.81;5012309;28;20100;-71
2023/01/26 09:06:59;;;;;;;10.63;5.47;;;;;;;18.51;42.71;102398.22;5012452;28;20030;-70
2023/01/26 09:09:24;;;;;;;13.80;5.00;;;;;;;18.52;42.51;102400.78;5014768;28;20405;-74
2023/01/26 09:11:50;;;;;;;10.30;4.82;;;;;;;18.56;42.28;102404.06;5015534;28;20095;-67
2023/01/26 09:14:15;;;;;;;13.18;4.80;;;;;;;18.54;42.46;102406.81;5013932;28;20096;-66
2023/01/26 09:16:40;;;;;;;16.95;5.38;;;;;;;18.53;42.27;102399.81;5012873;28;20038;-66
2023/01/26 09:19:06;;;;;;;13.00;4.72;;;;;;;18.53;42.68;102399.81;5012975;28;20048;-66
2023/01/26 09:21:31;;;;;;;10.27;4.97;;;;;;;18.52;42.45;102406.03;5013124;28;20022;-66
2023/01/26 09:23:56;;;;;;;12.55;5.25;;;;;;;18.48;42.36;102404.50;5012365;28;20034;-68
2023/01/26 09:26:22;;;;;;;12.48;5.30;;;;;;;18.48;42.60;102413.31;5013422;28;20390;-66
2023/01/26 09:28:51;;;;;;;12.55;4.80;;;;;;;18.44;42.68;102395.09;5013062;28;20481;-66
2023/01/26 09:31:17;;;;;;;12.75;5.10;;;;;;;18.43;42.47;102407.41;5014366;28;20030;-67
2023/01/26 09:33:42;;;;;;;12.23;5.20;;;;;;;18.46;42.72;102415.16;5013193;28;20045;-67
2023/01/26 09:36:09;;;;;;;13.52;6.13;;;;;;;18.46;42.52;102414.31;5014398;28;20493;-66
2023/01/26 09:38:35;;;;;;;15.15;5.97;;;;;;;18.46;42.25;102412.53;5013263;28;20033;-66
2023/01/26 09:41:24;;;;;;;11.73;5.65;;;;;;;18.44;42.29;102411.78;5012842;28;20087;-67
2023/01/26 09:43:53;;;;;;;12.93;5.32;;;;;;;18.42;42.20;102413.66;5012700;28;20029;-66
2023/01/26 09:46:31;;;;;;;13.75;5.45;;;;;;;18.45;42.09;102418.75;5012320;28;20052;-68
2023/01/26 09:49:05;;;;;;;11.10;5.00;;;;;;;18.44;42.11;102417.06;5012728;28;20038;-68
2023/01/26 09:51:35;;;;;;;10.80;5.53;;;;;;;18.39;42.37;102416.47;5012192;28;20060;-69
2023/01/26 09:54:11;;;;;;;14.05;6.38;;;;;;;18.37;42.33;102414.84;5011930;28;20064;-68
2023/01/26 09:56:36;;;;;;;11.43;5.45;;;;;;;18.39;42.32;102419.13;5012714;28;20041;-69
2023/01/26 09:59:36;;;;;;;8.45;5.05;;;;;;;18.39;42.50;102419.13;5012010;28;20041;-68
2023/01/26 10:02:12;;;;;;;10.75;5.57;;;;;;;18.38;42.45;102421.84;5012246;28;20052;-67
2023/01/26 10:04:44;;;;;;;12.27;5.32;;;;;;;18.32;42.22;102412.47;5011689;28;20489;-67
2023/01/26 10:07:11;;;;;;;10.40;5.50;;;;;;;18.36;42.12;102413.13;5011931;28;20116;-66
2023/01/26 10:09:39;;;;;;;12.55;6.00;;;;;;;18.35;42.09;102417.56;5012356;28;20033;-67
2023/01/26 10:12:13;;;;;;;11.82;7.57;;;;;;;18.28;40.79;102395.97;5012270;28;20033;-69
2023/01/26 10:14:41;;;;;;;;;;;;;;;18.37;41.16;102413.03;5012489;28;20108;-68
2023/01/26 10:17:16;;;;;;;13.30;5.97;;;;;;;18.34;41.32;102415.91;5008319;28;19925;-67
2023/01/26 10:19:55;;;;;;;13.52;6.22;;;;;;;18.34;41.99;102413.25;5006505;28;20044;-71
2023/01/26 10:22:35;;;;;;;9.32;5.70;;;;;;;18.31;41.77;102405.50;4999380;28;20079;-71
2023/01/26 10:25:00;;;;;;;8.05;5.00;;;;;;;18.38;41.71;102409.47;5010511;28;20034;-70
2023/01/26 10:27:28;;;;;;;12.65;6.15;;;;;;;18.36;41.74;102403.44;5010991;28;20539;-70
2023/01/26 10:29:53;;;;;;;10.88;5.35;;;;;;;18.40;42.10;102406.75;5009002;28;20029;-72
2023/01/26 10:32:18;;;;;;;12.18;5.38;;;;;;;18.37;42.15;102406.94;5007405;28;20505;-72
2023/01/26 10:34:47;;;;;;;12.82;5.85;;;;;;;18.43;42.16;102415.34;5010575;28;20037;-68
2023/01/26 10:37:26;;;;;;;9.43;5.30;;;;;;;18.44;42.43;102416.22;5011583;28;20037;-67
2023/01/26 10:40:06;;;;;;;9.65;5.13;;;;;;;18.45;42.49;102413.47;5011811;28;20046;-70
2023/01/26 10:42:34;;;;;;;11.07;4.97;;;;;;;18.42;42.38;102410.16;5011699;28;20040;-69
2023/01/26 10:45:02;;;;;;;10.90;5.78;;;;;;;18.47;42.61;102421.31;5011183;28;20033;-69
2023/01/26 10:47:28;;;;;;;11.52;5.75;;;;;;;18.49;42.77;102409.72;5007879;28;20925;-75
2023/01/26 10:50:18;;;;;;;10.20;5.45;;;;;;;18.56;42.93;102414.63;5004125;28;20113;-68
2023/01/26 10:52:58;;;;;;;14.07;5.85;;;;;;;18.60;43.05;102417.00;5002636;28;20065;-70
2023/01/26 10:55:25;;;;;;;11.70;6.30;;;;;;;18.62;43.21;102419.56;4993920;28;20135;-68
2023/01/26 10:57:51;;;;;;;16.90;7.07;;;;;;;18.66;43.11;102421.94;5003171;28;20453;-69
2023/01/26 11:00:29;;;;;;;12.68;5.75;;;;;;;18.68;43.23;102413.91;5003166;28;20085;-68
2023/01/26 11:03:03;;;;;;;13.32;6.13;;;;;;;18.69;43.21;102420.88;5003454;28;20045;-71
2023/01/26 11:05:29;;;;;;;15.15;5.82;;;;;;;18.76;43.47;102409.03;5002595;28;20120;-67
2023/01/26 11:08:02;;;;;;;12.52;6.38;;;;;;;18.76;43.57;102409.03;5003255;28;20407;-66
2023/01/26 11:10:34;;;;;;;12.18;6.30;;;;;;;18.72;43.71;102406.66;5002789;28;20057;-72
2023/01/26 11:13:16;;;;;;;12.68;6.28;;;;;;;18.68;43.63;102398.06;5003287;28;20053;-70
2023/01/26 11:15:48;;;;;;;12.15;5.78;;;;;;;18.77;43.30;102409.88;5002674;28;20041;-67
2023/01/26 11:18:19;;;;;;;12.93;6.10;;;;;;;18.74;43.52;102407.41;5002903;28;20034;-72
2023/01/26 11:20:59;;;;;;;14.90;6.18;;;;;;;18.80;43.53;102413.19;5003148;28;20407;-69
2023/01/26 11:23:30;;;;;;;12.25;6.00;;;;;;;18.80;43.52;102410.56;5003095;28;20424;-71
2023/01/26 11:26:13;;;;;;;14.88;6.28;;;;;;;18.81;43.58;102414.03;5003065;28;20037;-77
2023/01/26 11:28:47;;;;;;;13.82;6.22;;;;;;;18.81;43.52;102409.59;5002046;28;20037;-69
2023/01/26 11:31:33;;;;;;;14.48;5.70;;;;;;;18.88;43.37;102418.03;5008321;28;20942;-70
2023/01/26 11:34:35;;;;;;;14.90;5.85;;;;;;;18.95;43.34;102418.53;5009614;28;20517;-71
2023/01/26 11:37:14;;;;;;;12.95;6.38;;;;;;;19.01;43.34;102423.47;5011042;28;20042;-70
2023/01/26 11:40:03;;;;;;;14.20;5.75;;;;;;;19.07;43.21;102415.13;5003455;28;20124;-72
2023/01/26 11:42:44;;;;;;;12.18;5.88;;;;;;;19.08;43.25;102419.50;5009482;28;20157;-72
2023/01/26 11:45:24;;;;;;;12.20;5.93;;;;;;;19.07;43.41;102414.28;5010804;28;20034;-70
2023/01/26 11:48:09;;;;;;;10.35;5.68;;;;;;;19.03;43.55;102408.34;5014897;28;20057;-75
2023/01/26 11:50:34;;;;;;;;;;;;;;;19.10;43.25;102409.66;5015220;28;20560;-74
2023/01/26 11:53:22;;;;;;;10.98;5.70;;;;;;;19.03;43.56;102405.72;5015118;28;19924;-72
2023/01/26 11:56:02;;;;;;;14.00;5.90;;;;;;;18.96;43.33;102389.38;5014455;28;20034;-71
2023/01/26 11:58:39;;;;;;;12.45;5.40;;;;;;;18.98;43.59;102395.41;5015420;28;20054;-71
2023/01/26 12:01:13;;;;;;;12.55;6.50;;;;;;;18.99;43.63;102388.34;5015282;28;20029;-72
2023/01/26 12:03:51;;;;;;;11.75;5.72;;;;;;;19.00;43.49;102395.34;5014758;28;20056;-71
2023/01/26 12:06:38;;;;;;;11.50;5.88;;;;;;;18.97;43.63;102382.31;5014967;28;20127;-70
2023/01/26 12:09:18;;;;;;;15.85;6.10;;;;;;;18.99;43.49;102389.22;5014802;28;20492;-70